Map

Track Data

SID SEASON NUMBER BASIN SUBBASIN NAME ISO_TIME NATURE LAT LON WMO_WIND WMO_PRES WMO_AGENCY TRACK_TYPE DIST2LAND LANDFALL IFLAG USA_AGENCY USA_ATCF_ID USA_LAT USA_LON USA_RECORD USA_STATUS USA_WIND USA_PRES USA_SSHS USA_R34_NE USA_R34_SE USA_R34_SW USA_R34_NW USA_R50_NE USA_R50_SE USA_R50_SW USA_R50_NW USA_R64_NE USA_R64_SE USA_R64_SW USA_R64_NW USA_POCI USA_ROCI USA_RMW USA_EYE TOKYO_LAT TOKYO_LON TOKYO_GRADE TOKYO_WIND TOKYO_PRES TOKYO_R50_DIR TOKYO_R50_LONG TOKYO_R50_SHORT TOKYO_R30_DIR TOKYO_R30_LONG TOKYO_R30_SHORT TOKYO_LAND CMA_LAT CMA_LON CMA_CAT CMA_WIND CMA_PRES HKO_LAT HKO_LON HKO_CAT HKO_WIND HKO_PRES NEWDELHI_LAT NEWDELHI_LON NEWDELHI_GRADE NEWDELHI_WIND NEWDELHI_PRES NEWDELHI_CI NEWDELHI_DP NEWDELHI_POCI REUNION_LAT REUNION_LON REUNION_TYPE REUNION_WIND REUNION_PRES REUNION_TNUM REUNION_CI REUNION_RMW REUNION_R34_NE REUNION_R34_SE REUNION_R34_SW REUNION_R34_NW REUNION_R50_NE REUNION_R50_SE REUNION_R50_SW REUNION_R50_NW REUNION_R64_NE REUNION_R64_SE REUNION_R64_SW REUNION_R64_NW BOM_LAT BOM_LON BOM_TYPE BOM_WIND BOM_PRES BOM_TNUM BOM_CI BOM_RMW BOM_R34_NE BOM_R34_SE BOM_R34_SW BOM_R34_NW BOM_R50_NE BOM_R50_SE BOM_R50_SW BOM_R50_NW BOM_R64_NE BOM_R64_SE BOM_R64_SW BOM_R64_NW BOM_ROCI BOM_POCI BOM_EYE BOM_POS_METHOD BOM_PRES_METHOD NADI_LAT NADI_LON NADI_CAT NADI_WIND NADI_PRES WELLINGTON_LAT WELLINGTON_LON WELLINGTON_WIND WELLINGTON_PRES DS824_LAT DS824_LON DS824_STAGE DS824_WIND DS824_PRES TD9636_LAT TD9636_LON TD9636_STAGE TD9636_WIND TD9636_PRES TD9635_LAT TD9635_LON TD9635_WIND TD9635_PRES TD9635_ROCI NEUMANN_LAT NEUMANN_LON NEUMANN_CLASS NEUMANN_WIND NEUMANN_PRES MLC_LAT MLC_LON MLC_CLASS MLC_WIND MLC_PRES USA_GUST BOM_GUST BOM_GUST_PER REUNION_GUST REUNION_GUST_PER USA_SEAHGT USA_SEARAD_NE USA_SEARAD_SE USA_SEARAD_SW USA_SEARAD_NW STORM_SPEED STORM_DIR
1942230N19275 1942 40 NA CS NOT_NAMED 1942-08-17 12:00:00 TS 19.0000 -85.5000 30 hurdat_atl main 207 188 O_____________ hurdat_atl AL021942 19.0000 -85.5000 TD 30 -1 10 349
1942230N19275 1942 40 NA CS NOT_NAMED 1942-08-17 15:00:00 TS 19.4825 -85.5949 main 188 153 P_____________ AL021942 19.4825 -85.5949 TD 32 -1 10 349
1942230N19275 1942 40 NA CS NOT_NAMED 1942-08-17 18:00:00 TS 20.0000 -85.7000 35 hurdat_atl main 153 115 O_____________ hurdat_atl AL021942 20.0000 -85.7000 TS 35 0 11 349
1942230N19275 1942 40 NA CS NOT_NAMED 1942-08-17 21:00:00 TS 20.5775 -85.8277 main 108 72 P_____________ AL021942 20.5775 -85.8277 TS 35 0 12 347
1942230N19275 1942 40 NA CS NOT_NAMED 1942-08-18 00:00:00 TS 21.2000 -86.0000 35 hurdat_atl main 73 70 O_____________ hurdat_atl AL021942 21.2000 -86.0000 TS 35 0 13 343
1942230N19275 1942 40 NA GM NOT_NAMED 1942-08-18 03:00:00 TS 21.8275 -86.2351 main 83 83 P_____________ AL021942 21.8275 -86.2351 TS 37 0 14 340
1942230N19275 1942 40 NA GM NOT_NAMED 1942-08-18 06:00:00 TS 22.5000 -86.5000 40 hurdat_atl main 123 123 O_____________ hurdat_atl AL021942 22.5000 -86.5000 TS 40 0 15 342
1942230N19275 1942 40 NA GM NOT_NAMED 1942-08-18 09:00:00 TS 23.2424 -86.7428 main 192 192 P_____________ AL021942 23.2424 -86.7428 TS 42 0 16 343
1942230N19275 1942 40 NA GM NOT_NAMED 1942-08-18 12:00:00 TS 24.0000 -87.0000 45 hurdat_atl main 279 279 O_____________ hurdat_atl AL021942 24.0000 -87.0000 TS 45 0 16 342
1942230N19275 1942 40 NA GM NOT_NAMED 1942-08-18 15:00:00 TS 24.7299 -87.2852 main 358 358 P_____________ AL021942 24.7299 -87.2852 TS 47 0 15 339
1942230N19275 1942 40 NA GM NOT_NAMED 1942-08-18 18:00:00 TS 25.4000 -87.6000 50 hurdat_atl main 428 355 O_____________ hurdat_atl AL021942 25.4000 -87.6000 TS 50 0 14 335
1942230N19275 1942 40 NA GM NOT_NAMED 1942-08-18 21:00:00 TS 25.9873 -87.9205 main 355 290 P_____________ AL021942 25.9873 -87.9205 TS 52 0 13 330
1942230N19275 1942 40 NA GM NOT_NAMED 1942-08-19 00:00:00 TS 26.5000 -88.3000 55 hurdat_atl main 290 225 O_____________ hurdat_atl AL021942 26.5000 -88.3000 TS 55 0 13 322
1942230N19275 1942 40 NA GM NOT_NAMED 1942-08-19 03:00:00 TS 26.9952 -88.7922 main 225 178 P_____________ AL021942 26.9952 -88.7922 TS 57 0 13 315
1942230N19275 1942 40 NA GM NOT_NAMED 1942-08-19 06:00:00 TS 27.4000 -89.3000 60 hurdat_atl main 179 153 O_____________ hurdat_atl AL021942 27.4000 -89.3000 TS 60 0 11 311
1942230N19275 1942 40 NA GM NOT_NAMED 1942-08-19 09:00:00 TS 27.7098 -89.7228 main 156 133 P_____________ AL021942 27.7098 -89.7228 TS 62 0 9 305
1942230N19275 1942 40 NA GM NOT_NAMED 1942-08-19 12:00:00 TS 27.9000 -90.1000 65 hurdat_atl main 133 123 O_____________ hurdat_atl AL021942 27.9000 -90.1000 HU 65 1 7 292
1942230N19275 1942 40 NA GM NOT_NAMED 1942-08-19 15:00:00 TS 27.9800 -90.4728 main 123 122 P_____________ AL021942 27.9800 -90.4728 HU 67 1 6 279
1942230N19275 1942 40 NA GM NOT_NAMED 1942-08-19 18:00:00 TS 28.0000 -90.8000 70 hurdat_atl main 123 112 O_____________ hurdat_atl AL021942 28.0000 -90.8000 HU 70 1 5 278
1942230N19275 1942 40 NA GM NOT_NAMED 1942-08-19 21:00:00 TS 28.0574 -91.0725 main 113 113 P_____________ AL021942 28.0574 -91.0725 HU 70 1 5 283
1942230N19275 1942 40 NA GM NOT_NAMED 1942-08-20 00:00:00 TS 28.1000 -91.3000 70 hurdat_atl main 118 118 O_____________ hurdat_atl AL021942 28.1000 -91.3000 HU 70 1 4 276
1942230N19275 1942 40 NA GM NOT_NAMED 1942-08-20 03:00:00 TS 28.0999 -91.5001 main 126 126 P_____________ AL021942 28.0999 -91.5001 HU 70 1 4 270
1942230N19275 1942 40 NA GM NOT_NAMED 1942-08-20 06:00:00 TS 28.1000 -91.7000 70 hurdat_atl main 136 136 O_____________ hurdat_atl AL021942 28.1000 -91.7000 HU 70 1 4 275
1942230N19275 1942 40 NA GM NOT_NAMED 1942-08-20 09:00:00 TS 28.1350 -91.9425 main 145 141 P_____________ AL021942 28.1350 -91.9425 HU 70 1 5 283
1942230N19275 1942 40 NA GM NOT_NAMED 1942-08-20 12:00:00 TS 28.2000 -92.2000 70 hurdat_atl main 145 134 O_____________ hurdat_atl AL021942 28.2000 -92.2000 HU 70 1 5 289
1942230N19275 1942 40 NA GM NOT_NAMED 1942-08-20 15:00:00 TS 28.2849 -92.4426 main 134 126 P_____________ AL021942 28.2849 -92.4426 HU 70 1 5 294
1942230N19275 1942 40 NA GM NOT_NAMED 1942-08-20 18:00:00 TS 28.4000 -92.7000 70 hurdat_atl main 128 121 O_____________ hurdat_atl AL021942 28.4000 -92.7000 HU 70 1 5 298
1942230N19275 1942 40 NA GM NOT_NAMED 1942-08-20 21:00:00 TS 28.5425 -92.9925 main 128 115 P_____________ AL021942 28.5425 -92.9925 HU 70 1 6 300
1942230N19275 1942 40 NA GM NOT_NAMED 1942-08-21 00:00:00 TS 28.7000 -93.3000 70 hurdat_atl main 118 102 O_____________ hurdat_atl AL021942 28.7000 -93.3000 HU 70 1 6 299
1942230N19275 1942 40 NA GM NOT_NAMED 1942-08-21 03:00:00 TS 28.8424 -93.6002 main 102 78 P_____________ AL021942 28.8424 -93.6002 HU 70 1 6 300
1942230N19275 1942 40 NA GM NOT_NAMED 1942-08-21 06:00:00 TS 29.0000 -93.9000 70 hurdat_atl main 78 48 O_____________ hurdat_atl AL021942 29.0000 -93.9000 HU 70 1 6 302
1942230N19275 1942 40 NA GM NOT_NAMED 1942-08-21 09:00:00 TS 29.1670 -94.2001 main 48 14 P_____________ AL021942 29.1670 -94.2001 HU 67 1 7 307
1942230N19275 1942 40 NA GM NOT_NAMED 1942-08-21 12:00:00 TS 29.4000 -94.5000 65 hurdat_atl main 14 0 O_____________ hurdat_atl AL021942 29.4000 -94.5000 HU 65 1 7 314
1942230N19275 1942 40 NA GM NOT_NAMED 1942-08-21 13:00:00 TS 29.5000 -94.6000 65 hurdat_atl main 0 0 O_____________ hurdat_atl AL021942 29.5000 -94.6000 L HU 65 1 8 318
1942230N19275 1942 40 NA GM NOT_NAMED 1942-08-21 15:00:00 TS 29.6963 -94.8001 main 9 0 P_____________ AL021942 29.6963 -94.8001 HU 60 0 8 319
1942230N19275 1942 40 NA NA NOT_NAMED 1942-08-21 18:00:00 TS 30.0000 -95.1000 55 hurdat_atl main 0 0 O_____________ hurdat_atl AL021942 30.0000 -95.1000 TS 55 0 8 320
1942230N19275 1942 40 NA NA NOT_NAMED 1942-08-21 21:00:00 TS 30.3345 -95.4291 main 0 0 P_____________ AL021942 30.3345 -95.4291 TS 45 0 9 324
1942230N19275 1942 40 NA NA NOT_NAMED 1942-08-22 00:00:00 TS 30.7000 -95.7000 35 hurdat_atl main 0 0 O_____________ hurdat_atl AL021942 30.7000 -95.7000 TS 35 0 8 333
1942230N19275 1942 40 NA NA NOT_NAMED 1942-08-22 03:00:00 TS 31.0549 -95.8526 main 0 0 P_____________ AL021942 31.0549 -95.8526 TS 30 -1 8 348
1942230N19275 1942 40 NA NA NOT_NAMED 1942-08-22 06:00:00 TS 31.5000 -95.9000 25 hurdat_atl main 0 0 O_____________ hurdat_atl AL021942 31.5000 -95.9000 TD 25 -1 10 358
1942230N19275 1942 40 NA NA NOT_NAMED 1942-08-22 09:00:00 TS 32.0974 -95.9094 main 0 0 P_____________ AL021942 32.0974 -95.9094 TD 25 -1 13 4
1942230N19275 1942 40 NA NA NOT_NAMED 1942-08-22 12:00:00 TS 32.8000 -95.8000 25 hurdat_atl main 0 0 O_____________ hurdat_atl AL021942 32.8000 -95.8000 TD 25 -1 15 10
1942230N19275 1942 40 NA NA NOT_NAMED 1942-08-22 15:00:00 TS 33.5420 -95.5965 main 0 0 P_____________ AL021942 33.5420 -95.5965 TD 22 -1 16 18
1942230N19275 1942 40 NA NA NOT_NAMED 1942-08-22 18:00:00 TS 34.3000 -95.2000 20 hurdat_atl main 0 0 O_____________ hurdat_atl AL021942 34.3000 -95.2000 TD 20 -1 17 28
1942230N19275 1942 40 NA NA NOT_NAMED 1942-08-22 21:00:00 TS 35.0520 -94.6056 main 0 0 P_____________ AL021942 35.0520 -94.6056 TD 20 -1 18 39
1942230N19275 1942 40 NA NA NOT_NAMED 1942-08-23 00:00:00 TS 35.7000 -93.8000 20 hurdat_atl main 0 0 O_____________ hurdat_atl AL021942 35.7000 -93.8000 TD 20 -1 17 49
1942230N19275 1942 40 NA NA NOT_NAMED 1942-08-23 03:00:00 TS 36.1616 -93.0144 main 0 0 P_____________ AL021942 36.1616 -93.0144 TD 20 -1 18 64
1942230N19275 1942 40 NA NA NOT_NAMED 1942-08-23 06:00:00 ET 36.5000 -91.8000 20 hurdat_atl main 0 0 O_____________ hurdat_atl AL021942 36.5000 -91.8000 EX 20 -4 26 76
1942230N19275 1942 40 NA NA NOT_NAMED 1942-08-23 09:00:00 ET 36.7790 -89.8691 main 0 0 P_____________ AL021942 36.7790 -89.8691 EX 20 -4 35 82
1942230N19275 1942 40 NA NA NOT_NAMED 1942-08-23 12:00:00 ET 37.0000 -87.5000 20 hurdat_atl main 0 O_____________ hurdat_atl AL021942 37.0000 -87.5000 EX 20 -4 38 83

About IBTrACS Database

This database is a web-friendly format of International Best Track Archive for Climate Stewardship (IBTrACS), a global best track data archive curated by NOAA dating back to 1842.

Updated: 2021-12-06